createdAt,value
2018-12-23T00:00:12.916Z,436.00
2018-12-23T00:01:12.885Z,430.59
2018-12-23T00:02:12.865Z,432.27
2018-12-23T00:03:12.869Z,435.42
2018-12-23T00:04:12.882Z,434.73
2018-12-23T00:05:12.860Z,433.93
2018-12-23T00:06:12.841Z,438.77
2018-12-23T00:07:12.841Z,434.43
2018-12-23T00:08:12.826Z,438.57
2018-12-23T00:09:12.801Z,439.66
2018-12-23T00:10:12.818Z,438.95
2018-12-23T00:11:12.789Z,435.65
2018-12-23T00:12:12.791Z,436.86
2018-12-23T00:13:12.768Z,434.46
2018-12-23T00:14:12.742Z,432.89
2018-12-23T00:15:12.779Z,429.32
2018-12-23T00:16:12.732Z,433.02
2018-12-23T00:17:12.730Z,430.18
2018-12-23T00:18:12.699Z,430.96
2018-12-23T00:19:12.700Z,430.88
2018-12-23T00:20:12.702Z,433.01
2018-12-23T00:21:12.686Z,434.04
2018-12-23T00:22:12.692Z,426.50
2018-12-23T00:23:12.633Z,432.29
2018-12-23T00:24:12.634Z,435.53
2018-12-23T00:25:12.631Z,430.29
2018-12-23T00:26:12.616Z,430.21
2018-12-23T00:27:12.597Z,427.14
2018-12-23T00:28:12.669Z,431.09
2018-12-23T00:29:12.581Z,430.16
2018-12-23T00:30:12.573Z,425.32
2018-12-23T00:31:12.563Z,434.84
2018-12-23T00:32:12.556Z,428.46
2018-12-23T00:33:12.537Z,430.21
2018-12-23T00:34:12.542Z,427.80
2018-12-23T00:35:20.077Z,429.03
2018-12-23T00:36:13.512Z,432.03
2018-12-23T00:37:12.504Z,427.08
2018-12-23T00:38:12.479Z,425.51
2018-12-23T00:39:12.495Z,427.39
2018-12-23T00:40:12.457Z,423.68
2018-12-23T00:41:12.477Z,429.77
2018-12-23T00:42:12.464Z,427.49
2018-12-23T00:43:12.444Z,429.72
2018-12-23T00:44:12.413Z,427.83
2018-12-23T00:45:12.400Z,428.40
2018-12-23T00:46:12.426Z,422.35
2018-12-23T00:47:12.385Z,423.89
2018-12-23T00:48:12.378Z,427.86
2018-12-23T00:49:12.388Z,423.95
2018-12-23T00:50:12.362Z,426.11
2018-12-23T00:51:12.360Z,429.36
2018-12-23T00:52:12.321Z,427.06
2018-12-23T00:53:12.313Z,422.60
2018-12-23T00:54:12.301Z,424.10
2018-12-23T00:55:12.296Z,423.40
2018-12-23T00:56:12.308Z,424.64
2018-12-23T00:57:12.281Z,425.27
2018-12-23T00:58:12.272Z,428.30
2018-12-23T00:59:12.250Z,430.89
2018-12-23T01:00:12.246Z,424.99
2018-12-23T01:01:12.287Z,427.05
2018-12-23T01:02:12.229Z,423.61
2018-12-23T01:03:12.227Z,427.81
2018-12-23T01:04:12.194Z,427.25
2018-12-23T01:05:12.199Z,427.40
2018-12-23T01:06:12.190Z,422.07
2018-12-23T01:07:12.168Z,423.72
2018-12-23T01:08:12.171Z,422.24
2018-12-23T01:09:12.539Z,423.83
2018-12-23T01:10:12.139Z,419.67
2018-12-23T01:11:12.124Z,421.22
2018-12-23T01:12:12.111Z,423.39
2018-12-23T01:13:12.087Z,427.72
2018-12-23T01:14:12.104Z,423.45
2018-12-23T01:15:12.116Z,419.60
2018-12-23T01:16:12.543Z,420.96
2018-12-23T01:17:12.050Z,419.96
2018-12-23T01:18:12.048Z,415.21
2018-12-23T01:19:12.039Z,421.32
2018-12-23T01:20:12.079Z,415.07
2018-12-23T01:21:12.009Z,420.91
2018-12-23T01:22:12.035Z,421.15
2018-12-23T01:23:11.991Z,420.01
2018-12-23T01:24:11.990Z,418.16
2018-12-23T01:25:11.967Z,419.82
2018-12-23T01:26:12.023Z,424.47
2018-12-23T01:27:11.945Z,418.13
2018-12-23T01:28:11.945Z,424.31
2018-12-23T01:29:11.936Z,423.16
2018-12-23T01:30:11.941Z,426.38
2018-12-23T01:31:11.911Z,422.60
2018-12-23T01:32:11.929Z,419.90
2018-12-23T01:33:11.878Z,420.27
2018-12-23T01:34:11.883Z,420.74
2018-12-23T01:35:11.866Z,420.92
2018-12-23T01:36:11.880Z,417.62
2018-12-23T01:37:11.867Z,417.55
2018-12-23T01:38:11.814Z,422.27
2018-12-23T01:39:11.812Z,420.53
2018-12-23T01:40:11.806Z,421.72
2018-12-23T01:41:11.799Z,418.17
2018-12-23T01:42:11.814Z,420.77
2018-12-23T01:43:12.445Z,418.87
2018-12-23T01:44:11.752Z,421.48
2018-12-23T01:45:11.757Z,420.99
2018-12-23T01:46:11.743Z,420.96
2018-12-23T01:47:11.759Z,418.33
2018-12-23T01:48:11.720Z,420.12
2018-12-23T01:49:11.729Z,422.74
2018-12-23T01:50:11.680Z,418.82
2018-12-23T01:51:11.688Z,419.21
2018-12-23T01:52:11.707Z,421.16
2018-12-23T01:53:11.685Z,418.30
2018-12-23T01:54:11.662Z,417.73
2018-12-23T01:55:12.435Z,418.82
2018-12-23T01:56:12.044Z,418.67
2018-12-23T01:57:11.720Z,419.38
2018-12-23T01:58:11.616Z,419.19
2018-12-23T01:59:11.617Z,420.58
2018-12-23T02:00:11.597Z,421.04
2018-12-23T02:01:11.613Z,418.36
2018-12-23T02:02:11.595Z,420.90
2018-12-23T02:03:11.581Z,416.13
2018-12-23T02:04:11.554Z,419.19
2018-12-23T02:05:11.575Z,415.07
2018-12-23T02:06:13.392Z,420.16
2018-12-23T02:07:11.526Z,418.91
2018-12-23T02:08:11.499Z,415.85
2018-12-23T02:09:11.511Z,412.12
2018-12-23T02:10:11.486Z,417.58
2018-12-23T02:11:11.462Z,419.28
2018-12-23T02:12:11.470Z,419.49
2018-12-23T02:13:11.444Z,416.91
2018-12-23T02:14:11.549Z,420.75
2018-12-23T02:15:11.429Z,420.05
2018-12-23T02:16:11.413Z,415.01
2018-12-23T02:17:11.404Z,416.97
2018-12-23T02:18:11.407Z,416.07
2018-12-23T02:19:11.414Z,420.46
2018-12-23T02:20:11.355Z,417.25
2018-12-23T02:21:11.364Z,420.20
2018-12-23T02:22:11.349Z,412.04
2018-12-23T02:23:11.338Z,415.93
2018-12-23T02:24:11.352Z,414.69
2018-12-23T02:25:11.356Z,417.94
2018-12-23T02:26:11.313Z,422.60
2018-12-23T02:27:11.308Z,422.64
2018-12-23T02:28:11.289Z,419.29
2018-12-23T02:29:11.275Z,417.41
2018-12-23T02:30:11.286Z,419.02
2018-12-23T02:31:11.250Z,415.72
2018-12-23T02:32:11.245Z,416.74
2018-12-23T02:33:11.253Z,421.65
2018-12-23T02:34:11.245Z,419.05
2018-12-23T02:35:11.213Z,415.44
2018-12-23T02:36:11.211Z,412.57
2018-12-23T02:37:11.188Z,418.50
2018-12-23T02:38:11.184Z,415.02
2018-12-23T02:39:11.201Z,420.55
2018-12-23T02:40:11.142Z,416.37
2018-12-23T02:41:11.138Z,422.53
2018-12-23T02:42:11.146Z,424.58
2018-12-23T02:43:11.121Z,418.89
2018-12-23T02:44:11.155Z,419.11
2018-12-23T02:45:11.116Z,419.14
2018-12-23T02:46:11.102Z,420.68
2018-12-23T02:47:11.094Z,420.22
2018-12-23T02:48:11.055Z,421.81
2018-12-23T02:49:11.067Z,421.39
2018-12-23T02:50:11.058Z,419.48
2018-12-23T02:51:11.042Z,417.68
2018-12-23T02:52:11.010Z,417.08
2018-12-23T02:53:11.011Z,416.05
2018-12-23T02:54:11.004Z,413.53
2018-12-23T02:55:10.990Z,416.47
2018-12-23T02:56:10.983Z,419.39
2018-12-23T02:57:10.992Z,425.18
2018-12-23T02:58:10.971Z,416.34
2018-12-23T02:59:10.990Z,416.61
2018-12-23T03:00:10.927Z,414.96
2018-12-23T03:01:10.926Z,420.10
2018-12-23T03:02:10.923Z,423.09
2018-12-23T03:03:10.958Z,418.27
2018-12-23T03:04:10.931Z,416.87
2018-12-23T03:05:10.895Z,417.78
2018-12-23T03:06:10.860Z,415.83
2018-12-23T03:07:10.855Z,417.24
2018-12-23T03:08:10.849Z,420.18
2018-12-23T03:09:10.877Z,418.46
2018-12-23T03:10:10.832Z,425.86
2018-12-23T03:11:10.835Z,419.24
2018-12-23T03:12:10.795Z,424.95
2018-12-23T03:13:10.802Z,419.62
2018-12-23T03:14:10.809Z,429.16
2018-12-23T03:15:10.788Z,425.39
2018-12-23T03:16:10.773Z,420.34
2018-12-23T03:17:10.770Z,419.90
2018-12-23T03:18:10.748Z,422.17
2018-12-23T03:19:10.760Z,426.80
2018-12-23T03:20:10.722Z,424.31
2018-12-23T03:21:10.701Z,423.23
2018-12-23T03:22:10.707Z,423.63
2018-12-23T03:23:10.705Z,418.39
2018-12-23T03:24:10.670Z,423.71
2018-12-23T03:25:10.679Z,420.45
2018-12-23T03:26:10.655Z,421.57
2018-12-23T03:27:10.636Z,418.72
2018-12-23T03:28:10.647Z,415.85
2018-12-23T03:29:10.812Z,414.93
2018-12-23T03:30:10.618Z,416.46
2018-12-23T03:31:10.598Z,421.84
2018-12-23T03:32:10.601Z,417.70
2018-12-23T03:33:10.576Z,418.64
2018-12-23T03:34:10.581Z,416.88
2018-12-23T03:35:10.556Z,413.83
2018-12-23T03:36:14.992Z,419.31
2018-12-23T03:37:10.534Z,416.97
2018-12-23T03:38:10.536Z,416.89
2018-12-23T03:39:10.543Z,418.55
2018-12-23T03:40:10.500Z,419.07
2018-12-23T03:41:10.493Z,417.15
2018-12-23T03:42:10.500Z,415.74
2018-12-23T03:43:10.473Z,421.18
2018-12-23T03:44:10.467Z,421.93
2018-12-23T03:45:10.451Z,422.60
2018-12-23T03:46:10.425Z,422.05
2018-12-23T03:47:10.458Z,417.92
2018-12-23T03:48:10.411Z,422.80
2018-12-23T03:49:10.412Z,418.77
2018-12-23T03:50:10.389Z,420.44
2018-12-23T03:51:10.429Z,416.13
2018-12-23T03:52:10.360Z,424.59
2018-12-23T03:53:10.371Z,416.00
2018-12-23T03:54:10.350Z,426.33
2018-12-23T03:55:10.354Z,419.51
2018-12-23T03:56:10.322Z,422.51
2018-12-23T03:57:10.319Z,427.76
2018-12-23T03:58:10.303Z,416.47
2018-12-23T03:59:10.295Z,413.71
2018-12-23T04:00:10.322Z,423.07
2018-12-23T04:01:10.298Z,422.54
2018-12-23T04:02:10.265Z,429.86
2018-12-23T04:03:10.269Z,423.41
2018-12-23T04:04:10.240Z,424.00
2018-12-23T04:05:10.242Z,429.40
2018-12-23T04:06:10.217Z,420.10
2018-12-23T04:07:10.229Z,428.91
2018-12-23T04:08:10.204Z,425.01
2018-12-23T04:09:10.210Z,420.78
2018-12-23T04:10:10.199Z,422.86
2018-12-23T04:11:10.179Z,427.39
2018-12-23T04:12:10.191Z,425.22
2018-12-23T04:13:10.155Z,422.46
2018-12-23T04:14:10.146Z,419.03
2018-12-23T04:15:10.150Z,422.08
2018-12-23T04:16:10.107Z,423.57
2018-12-23T04:17:10.093Z,423.02
2018-12-23T04:18:10.086Z,421.48
2018-12-23T04:19:10.121Z,419.49
2018-12-23T04:20:10.078Z,419.65
2018-12-23T04:21:10.075Z,422.92
2018-12-23T04:22:10.052Z,421.64
2018-12-23T04:23:10.072Z,424.00
2018-12-23T04:24:10.023Z,427.22
2018-12-23T04:25:10.038Z,425.18
2018-12-23T04:26:10.019Z,426.92
2018-12-23T04:27:10.033Z,431.03
2018-12-23T04:28:09.996Z,427.04
2018-12-23T04:29:09.975Z,424.34
2018-12-23T04:30:10.953Z,422.37
2018-12-23T04:31:09.960Z,424.42
2018-12-23T04:32:09.977Z,425.57
2018-12-23T04:33:09.951Z,420.84
2018-12-23T04:34:09.963Z,421.31
2018-12-23T04:35:09.958Z,422.36
2018-12-23T04:36:09.965Z,433.50
2018-12-23T04:37:10.456Z,421.83
2018-12-23T04:38:09.904Z,424.64
2018-12-23T04:39:09.865Z,424.68
2018-12-23T04:40:09.886Z,423.63
2018-12-23T04:41:09.840Z,425.38
2018-12-23T04:42:09.823Z,422.52
2018-12-23T04:43:09.818Z,428.59
2018-12-23T04:44:09.811Z,427.57
2018-12-23T04:45:09.820Z,427.99
2018-12-23T04:46:09.825Z,433.33
2018-12-23T04:47:09.784Z,432.77
2018-12-23T04:48:09.748Z,422.90
2018-12-23T04:49:09.753Z,428.12
2018-12-23T04:50:09.758Z,430.61
2018-12-23T04:51:09.718Z,434.06
2018-12-23T04:52:09.746Z,432.28
2018-12-23T04:53:09.733Z,432.57
2018-12-23T04:54:09.696Z,437.92
2018-12-23T04:55:09.688Z,423.39
2018-12-23T04:56:09.674Z,423.68
2018-12-23T04:57:09.676Z,426.66
2018-12-23T04:58:09.660Z,429.02
2018-12-23T04:59:09.656Z,433.16
2018-12-23T05:00:09.646Z,437.83
2018-12-23T05:01:09.709Z,428.74
2018-12-23T05:02:09.622Z,423.48
2018-12-23T05:03:10.469Z,429.99
2018-12-23T05:04:09.596Z,429.37
2018-12-23T05:05:09.628Z,433.24
2018-12-23T05:06:09.566Z,430.78
2018-12-23T05:07:09.562Z,429.83
2018-12-23T05:08:09.564Z,432.17
2018-12-23T05:09:09.534Z,430.49
2018-12-23T05:10:09.534Z,430.46
2018-12-23T05:11:09.525Z,424.52
2018-12-23T05:12:09.532Z,427.29
2018-12-23T05:13:09.488Z,427.68
2018-12-23T05:14:09.469Z,423.87
2018-12-23T05:15:09.474Z,429.23
2018-12-23T05:16:09.468Z,433.68
2018-12-23T05:17:09.471Z,431.39
2018-12-23T05:18:09.439Z,432.01
2018-12-23T05:19:09.435Z,428.88
2018-12-23T05:20:09.430Z,429.79
2018-12-23T05:21:09.402Z,431.97
2018-12-23T05:22:09.386Z,426.97
2018-12-23T05:23:09.371Z,422.17
2018-12-23T05:24:09.375Z,436.69
2018-12-23T05:25:09.386Z,431.41
2018-12-23T05:26:09.350Z,424.65
2018-12-23T05:27:09.342Z,433.01
2018-12-23T05:28:09.361Z,426.93
2018-12-23T05:29:09.311Z,432.85
2018-12-23T05:30:09.342Z,429.92
2018-12-23T05:31:09.313Z,424.32
2018-12-23T05:32:09.273Z,427.04
2018-12-23T05:33:09.280Z,427.57
2018-12-23T05:34:09.260Z,426.20
2018-12-23T05:35:09.262Z,430.14
2018-12-23T05:36:09.246Z,428.76
2018-12-23T05:37:09.224Z,433.63
2018-12-23T05:38:09.221Z,435.92
2018-12-23T05:39:09.223Z,440.31
2018-12-23T05:40:09.230Z,432.88
2018-12-23T05:41:09.178Z,432.21
2018-12-23T05:42:09.177Z,423.63
2018-12-23T05:43:09.155Z,426.77
2018-12-23T05:44:09.158Z,432.33
2018-12-23T05:45:09.170Z,434.34
2018-12-23T05:46:09.131Z,431.98
2018-12-23T05:47:09.117Z,426.81
2018-12-23T05:48:09.115Z,427.97
2018-12-23T05:49:09.096Z,431.74
2018-12-23T05:50:09.104Z,425.42
2018-12-23T05:51:09.074Z,424.07
2018-12-23T05:52:09.076Z,428.27
2018-12-23T05:53:09.057Z,432.08
2018-12-23T05:54:09.038Z,426.45
2018-12-23T05:55:09.064Z,432.92
2018-12-23T05:56:09.050Z,432.29
2018-12-23T05:57:09.016Z,435.89
2018-12-23T05:58:09.028Z,434.60
2018-12-23T05:59:09.035Z,429.36
2018-12-23T06:00:09.017Z,430.83
2018-12-23T06:01:08.972Z,431.33
2018-12-23T06:02:08.967Z,436.05
2018-12-23T06:03:08.954Z,433.01
2018-12-23T06:04:08.925Z,424.11
2018-12-23T06:05:08.932Z,425.59
2018-12-23T06:06:08.897Z,430.19
2018-12-23T06:07:08.902Z,431.27
2018-12-23T06:08:08.893Z,436.65
2018-12-23T06:09:08.892Z,437.32
2018-12-23T06:10:08.902Z,427.52
2018-12-23T06:11:08.871Z,432.01
2018-12-23T06:12:08.844Z,437.21
2018-12-23T06:13:08.842Z,437.23
2018-12-23T06:14:08.857Z,431.46
2018-12-23T06:15:08.831Z,433.33
2018-12-23T06:16:08.803Z,429.45
2018-12-23T06:17:08.810Z,430.25
2018-12-23T06:18:08.775Z,427.32
2018-12-23T06:19:08.766Z,428.33
2018-12-23T06:20:08.772Z,424.50
2018-12-23T06:21:08.766Z,423.98
2018-12-23T06:22:08.740Z,432.24
2018-12-23T06:23:08.720Z,437.19
2018-12-23T06:24:08.704Z,434.48
2018-12-23T06:25:08.723Z,424.44
2018-12-23T06:26:08.692Z,431.22
2018-12-23T06:27:08.671Z,431.61
2018-12-23T06:28:08.679Z,423.82
2018-12-23T06:29:08.658Z,426.19
2018-12-23T06:30:08.692Z,431.73
2018-12-23T06:31:08.635Z,429.71
2018-12-23T06:32:08.625Z,427.47
2018-12-23T06:33:08.608Z,431.52
2018-12-23T06:34:08.723Z,434.84
2018-12-23T06:35:08.626Z,436.33
2018-12-23T06:36:08.589Z,430.98
2018-12-23T06:37:10.266Z,430.21
2018-12-23T06:38:08.567Z,434.54
2018-12-23T06:39:08.554Z,428.69
2018-12-23T06:40:08.553Z,432.68
2018-12-23T06:41:08.552Z,440.79
2018-12-23T06:42:08.566Z,438.78
2018-12-23T06:43:08.504Z,433.82
2018-12-23T06:44:08.503Z,435.27
2018-12-23T06:45:08.483Z,428.39
2018-12-23T06:46:08.463Z,428.78
2018-12-23T06:47:08.543Z,437.90
2018-12-23T06:48:08.459Z,427.30
2018-12-23T06:49:08.444Z,430.92
2018-12-23T06:50:08.448Z,419.46
2018-12-23T06:51:08.419Z,431.49
2018-12-23T06:52:08.406Z,433.93
2018-12-23T06:53:08.440Z,429.15
2018-12-23T06:54:08.384Z,427.57
2018-12-23T06:55:08.380Z,432.99
2018-12-23T06:56:08.371Z,426.75
2018-12-23T06:57:08.478Z,441.09
2018-12-23T06:58:08.355Z,433.59
2018-12-23T06:59:08.348Z,434.01
2018-12-23T07:00:08.983Z,434.45
2018-12-23T07:01:08.329Z,432.98
2018-12-23T07:02:08.299Z,428.35
2018-12-23T07:03:08.304Z,427.57
2018-12-23T07:04:08.316Z,431.52
2018-12-23T07:05:08.299Z,434.44
2018-12-23T07:06:08.254Z,421.01
2018-12-23T07:07:08.326Z,430.00
2018-12-23T07:08:08.270Z,431.82
2018-12-23T07:09:08.239Z,433.86
2018-12-23T07:10:08.255Z,428.08
2018-12-23T07:11:08.977Z,431.34
2018-12-23T07:12:08.232Z,430.27
2018-12-23T07:13:08.195Z,431.85
2018-12-23T07:14:08.332Z,426.23
2018-12-23T07:15:08.189Z,425.12
2018-12-23T07:16:08.169Z,434.13
2018-12-23T07:17:08.133Z,435.50
2018-12-23T07:18:08.204Z,439.30
2018-12-23T07:19:08.147Z,430.64
2018-12-23T07:20:08.128Z,425.17
2018-12-23T07:21:08.176Z,437.25
2018-12-23T07:22:08.071Z,427.99
2018-12-23T07:23:08.065Z,421.46
2018-12-23T07:24:08.063Z,424.82
2018-12-23T07:25:08.071Z,436.07
2018-12-23T07:26:08.047Z,434.71
2018-12-23T07:27:08.030Z,431.49
2018-12-23T07:28:08.006Z,435.83
2018-12-23T07:29:08.002Z,431.27
2018-12-23T07:30:08.020Z,430.06
2018-12-23T07:31:07.998Z,426.91
2018-12-23T07:32:07.999Z,431.11
2018-12-23T07:33:07.998Z,432.76
2018-12-23T07:34:07.967Z,426.50
2018-12-23T07:35:07.967Z,437.07
2018-12-23T07:36:07.926Z,428.17
2018-12-23T07:37:07.942Z,431.00
2018-12-23T07:38:07.920Z,430.90
2018-12-23T07:39:07.904Z,427.64
2018-12-23T07:40:07.909Z,433.84
2018-12-23T07:41:07.878Z,426.36
2018-12-23T07:42:07.875Z,431.95
2018-12-23T07:43:07.873Z,429.00
2018-12-23T07:44:07.858Z,429.19
2018-12-23T07:45:07.856Z,421.50
2018-12-23T07:46:07.821Z,430.46
2018-12-23T07:47:07.830Z,432.68
2018-12-23T07:48:07.827Z,427.06
2018-12-23T07:49:07.792Z,436.37
2018-12-23T07:50:07.800Z,427.43
2018-12-23T07:51:07.752Z,440.40
2018-12-23T07:52:07.754Z,431.59
2018-12-23T07:53:07.745Z,433.34
2018-12-23T07:54:07.732Z,429.49
2018-12-23T07:55:07.753Z,432.42
2018-12-23T07:56:07.724Z,438.16
2018-12-23T07:57:07.730Z,432.79
2018-12-23T07:58:07.705Z,429.98
2018-12-23T07:59:07.707Z,434.30
2018-12-23T08:00:07.682Z,435.14
2018-12-23T08:01:07.683Z,425.18
2018-12-23T08:02:07.652Z,427.68
2018-12-23T08:03:07.623Z,433.65
2018-12-23T08:04:08.343Z,435.14
2018-12-23T08:05:07.633Z,427.66
2018-12-23T08:06:07.603Z,425.72
2018-12-23T08:07:08.490Z,430.39
2018-12-23T08:08:07.568Z,432.01
2018-12-23T08:09:07.556Z,435.06
2018-12-23T08:10:07.586Z,433.98
2018-12-23T08:11:07.553Z,429.67
2018-12-23T08:12:07.534Z,430.35
2018-12-23T08:13:07.527Z,429.45
2018-12-23T08:14:07.507Z,427.45
2018-12-23T08:15:07.526Z,428.32
2018-12-23T08:16:07.487Z,431.63
2018-12-23T08:17:07.483Z,431.89
2018-12-23T08:18:07.473Z,432.40
2018-12-23T08:19:07.471Z,430.76
2018-12-23T08:20:07.435Z,425.40
2018-12-23T08:21:07.444Z,434.44
2018-12-23T08:22:07.422Z,427.47
2018-12-23T08:23:07.424Z,426.31
2018-12-23T08:24:07.412Z,430.31
2018-12-23T08:25:07.423Z,432.65
2018-12-23T08:26:07.368Z,430.98
2018-12-23T08:27:07.359Z,437.60
2018-12-23T08:28:07.370Z,426.74
2018-12-23T08:29:07.374Z,424.66
2018-12-23T08:30:07.375Z,431.12
2018-12-23T08:31:07.321Z,430.29
2018-12-23T08:32:07.345Z,428.98
2018-12-23T08:33:07.297Z,423.52
2018-12-23T08:34:07.292Z,427.92
2018-12-23T08:35:07.309Z,428.18
2018-12-23T08:36:07.286Z,421.58
2018-12-23T08:37:07.257Z,425.25
2018-12-23T08:38:07.253Z,426.54
2018-12-23T08:39:07.237Z,435.07
2018-12-23T08:40:07.237Z,435.79
2018-12-23T08:41:07.204Z,433.68
2018-12-23T08:42:07.217Z,432.81
2018-12-23T08:43:07.221Z,428.47
2018-12-23T08:44:07.194Z,427.07
2018-12-23T08:45:07.197Z,437.84
2018-12-23T08:46:07.168Z,433.14
2018-12-23T08:47:07.153Z,436.39
2018-12-23T08:48:07.163Z,427.57
2018-12-23T08:49:07.127Z,432.22
2018-12-23T08:50:07.141Z,426.47
2018-12-23T08:51:07.115Z,439.12
2018-12-23T08:52:07.087Z,429.72
2018-12-23T08:53:07.081Z,437.64
2018-12-23T08:54:07.059Z,434.48
2018-12-23T08:55:07.093Z,429.58
2018-12-23T08:56:07.060Z,430.11
2018-12-23T08:57:07.044Z,424.33
2018-12-23T08:58:07.020Z,426.67
2018-12-23T08:59:07.016Z,431.60
2018-12-23T09:00:07.029Z,432.28
2018-12-23T09:01:07.019Z,431.68
2018-12-23T09:02:06.982Z,427.98
2018-12-23T09:03:06.989Z,427.77
2018-12-23T09:04:06.954Z,436.49
2018-12-23T09:05:06.964Z,431.05
2018-12-23T09:06:06.930Z,431.77
2018-12-23T09:07:06.921Z,432.38
2018-12-23T09:08:06.946Z,432.73
2018-12-23T09:09:06.921Z,426.89
2018-12-23T09:10:06.911Z,430.06
2018-12-23T09:11:06.883Z,434.60
2018-12-23T09:12:06.871Z,437.55
2018-12-23T09:13:06.872Z,426.58
2018-12-23T09:14:06.856Z,431.50
2018-12-23T09:15:06.859Z,425.99
2018-12-23T09:16:06.844Z,429.45
2018-12-23T09:17:06.806Z,424.39
2018-12-23T09:18:06.797Z,428.89
2018-12-23T09:19:06.792Z,430.57
2018-12-23T09:20:06.792Z,427.68
2018-12-23T09:21:06.803Z,428.83
2018-12-23T09:22:06.772Z,430.35
2018-12-23T09:23:06.748Z,428.89
2018-12-23T09:24:06.735Z,427.69
2018-12-23T09:25:06.721Z,437.18
2018-12-23T09:26:06.748Z,438.77
2018-12-23T09:27:06.708Z,435.77
2018-12-23T09:28:08.838Z,428.18
2018-12-23T09:29:06.694Z,430.38
2018-12-23T09:30:06.735Z,440.26
2018-12-23T09:31:06.663Z,434.83
2018-12-23T09:32:06.681Z,429.56
2018-12-23T09:33:06.644Z,436.59
2018-12-23T09:34:06.643Z,430.35
2018-12-23T09:35:06.624Z,425.37
2018-12-23T09:36:06.603Z,436.07
2018-12-23T09:37:06.607Z,437.01
2018-12-23T09:38:06.603Z,428.70
2018-12-23T09:39:06.607Z,435.97
2018-12-23T09:40:06.566Z,433.33
2018-12-23T09:41:06.563Z,431.52
2018-12-23T09:42:06.543Z,426.65
2018-12-23T09:43:06.590Z,424.69
2018-12-23T09:44:06.550Z,420.95
2018-12-23T09:45:06.511Z,432.23
2018-12-23T09:46:06.538Z,429.37
2018-12-23T09:47:06.499Z,426.55
2018-12-23T09:48:06.481Z,428.36
2018-12-23T09:49:06.540Z,428.84
2018-12-23T09:50:06.460Z,430.48
2018-12-23T09:51:06.459Z,423.44
2018-12-23T09:52:06.462Z,430.25
2018-12-23T09:53:06.413Z,427.73
2018-12-23T09:54:06.454Z,437.22
2018-12-23T09:55:06.407Z,429.68
2018-12-23T09:56:06.401Z,431.52
2018-12-23T09:57:06.392Z,427.95
2018-12-23T09:58:06.362Z,434.08
2018-12-23T09:59:06.351Z,430.81
2018-12-23T10:00:06.409Z,429.55
2018-12-23T10:01:06.424Z,427.38
2018-12-23T10:02:06.324Z,428.57
2018-12-23T10:03:06.307Z,428.83
2018-12-23T10:04:06.301Z,429.19
2018-12-23T10:05:06.287Z,431.80
2018-12-23T10:06:06.302Z,424.96
2018-12-23T10:07:06.299Z,434.09
2018-12-23T10:08:10.261Z,431.26
2018-12-23T10:09:06.270Z,430.83
2018-12-23T10:10:06.254Z,432.42
2018-12-23T10:11:06.228Z,434.66
2018-12-23T10:12:06.233Z,438.50
2018-12-23T10:13:06.208Z,429.56
2018-12-23T10:14:06.207Z,429.82
2018-12-23T10:15:06.182Z,429.52
2018-12-23T10:16:06.158Z,425.04
2018-12-23T10:17:06.161Z,431.72
2018-12-23T10:18:07.096Z,428.31
2018-12-23T10:19:06.145Z,432.05
2018-12-23T10:20:06.121Z,432.25
2018-12-23T10:21:06.117Z,429.77
2018-12-23T10:22:06.117Z,428.97
2018-12-23T10:23:06.098Z,429.33
2018-12-23T10:24:06.098Z,430.25
2018-12-23T10:25:06.090Z,430.96
2018-12-23T10:26:06.076Z,431.84
2018-12-23T10:27:06.050Z,436.70
2018-12-23T10:28:06.053Z,432.23
2018-12-23T10:29:06.036Z,432.17
2018-12-23T10:30:06.043Z,430.66
2018-12-23T10:31:06.013Z,426.95
2018-12-23T10:32:05.998Z,424.90
2018-12-23T10:33:06.017Z,431.76
2018-12-23T10:34:05.967Z,425.21
2018-12-23T10:35:05.974Z,427.11
2018-12-23T10:36:05.960Z,435.22
2018-12-23T10:37:05.954Z,433.62
2018-12-23T10:38:05.949Z,431.07
2018-12-23T10:39:05.917Z,429.22
2018-12-23T10:40:05.915Z,427.71
2018-12-23T10:41:05.896Z,423.91
2018-12-23T10:42:05.888Z,429.85
2018-12-23T10:43:05.897Z,431.38
2018-12-23T10:44:05.865Z,427.17
2018-12-23T10:45:05.856Z,426.79
2018-12-23T10:46:05.845Z,423.22
2018-12-23T10:47:05.839Z,423.32
2018-12-23T10:48:05.805Z,434.42
2018-12-23T10:49:05.803Z,429.49
2018-12-23T10:50:05.793Z,424.45
2018-12-23T10:51:05.815Z,424.93
2018-12-23T10:52:05.767Z,419.85
2018-12-23T10:53:05.752Z,435.98
2018-12-23T10:54:05.749Z,429.62
2018-12-23T10:55:05.736Z,425.46
2018-12-23T10:56:05.780Z,430.18
2018-12-23T10:57:05.719Z,434.29
2018-12-23T10:58:05.712Z,432.98
2018-12-23T10:59:05.701Z,433.18
2018-12-23T11:00:05.713Z,430.98
2018-12-23T11:01:05.667Z,430.46
2018-12-23T11:02:13.420Z,422.30
2018-12-23T11:03:06.661Z,429.00
2018-12-23T11:04:05.634Z,425.63
2018-12-23T11:05:05.631Z,434.56
2018-12-23T11:06:05.652Z,426.96
2018-12-23T11:07:05.641Z,428.38
2018-12-23T11:08:05.598Z,424.48
2018-12-23T11:09:05.590Z,426.11
2018-12-23T11:10:05.577Z,431.73
2018-12-23T11:11:05.560Z,428.46
2018-12-23T11:12:05.580Z,426.98
2018-12-23T11:13:05.535Z,428.43
2018-12-23T11:14:05.535Z,426.83
2018-12-23T11:15:05.520Z,454.20
2018-12-23T11:16:05.515Z,435.98
2018-12-23T11:17:05.501Z,439.68
2018-12-23T11:18:05.502Z,429.00
2018-12-23T11:19:05.461Z,427.67
2018-12-23T11:20:05.466Z,429.82
2018-12-23T11:21:05.462Z,429.39
2018-12-23T11:22:05.438Z,433.32
2018-12-23T11:23:05.467Z,424.92
2018-12-23T11:24:05.423Z,439.60
2018-12-23T11:25:05.407Z,426.49
2018-12-23T11:26:05.404Z,432.08
2018-12-23T11:27:05.392Z,431.18
2018-12-23T11:28:05.423Z,432.08
2018-12-23T11:29:05.371Z,436.89
2018-12-23T11:30:05.372Z,431.93
2018-12-23T11:31:05.336Z,424.04
2018-12-23T11:32:05.322Z,438.24
2018-12-23T11:33:05.319Z,425.23
2018-12-23T11:34:05.338Z,432.91
2018-12-23T11:35:05.306Z,432.98
2018-12-23T11:36:05.283Z,428.47
2018-12-23T11:37:05.262Z,431.37
2018-12-23T11:38:05.270Z,440.22
2018-12-23T11:39:05.279Z,430.51
2018-12-23T11:40:05.249Z,430.24
2018-12-23T11:41:05.246Z,433.42
2018-12-23T11:42:05.205Z,440.04
2018-12-23T11:43:05.204Z,430.54
2018-12-23T11:44:05.206Z,436.28
2018-12-23T11:45:05.186Z,433.59
2018-12-23T11:46:05.197Z,429.88
2018-12-23T11:47:05.165Z,433.29
2018-12-23T11:48:05.161Z,430.89
2018-12-23T11:49:05.160Z,426.84
2018-12-23T11:50:05.137Z,427.75
2018-12-23T11:51:06.760Z,426.76
2018-12-23T11:52:05.114Z,426.95
2018-12-23T11:53:05.103Z,429.22
2018-12-23T11:54:05.084Z,428.75
2018-12-23T11:55:05.071Z,433.89
2018-12-23T11:56:05.085Z,433.46
2018-12-23T11:57:05.053Z,426.86
2018-12-23T11:58:05.055Z,428.59
2018-12-23T11:59:05.033Z,430.57
2018-12-23T12:00:05.025Z,429.69
2018-12-23T12:01:05.053Z,429.50
2018-12-23T12:02:05.008Z,433.39
2018-12-23T12:03:04.989Z,428.85
2018-12-23T12:04:04.971Z,436.79
2018-12-23T12:05:04.972Z,422.85
2018-12-23T12:06:04.996Z,423.24
2018-12-23T12:07:04.944Z,436.47
2018-12-23T12:08:04.933Z,426.47
2018-12-23T12:09:07.062Z,427.56
2018-12-23T12:10:04.929Z,434.62
2018-12-23T12:11:04.902Z,429.58
2018-12-23T12:12:04.915Z,432.52
2018-12-23T12:13:04.883Z,429.87
2018-12-23T12:14:04.870Z,434.51
2018-12-23T12:15:04.859Z,430.23
2018-12-23T12:16:04.845Z,427.66
2018-12-23T12:17:04.880Z,425.45
2018-12-23T12:18:04.826Z,431.04
2018-12-23T12:19:04.836Z,427.93
2018-12-23T12:20:04.805Z,433.40
2018-12-23T12:21:04.780Z,440.49
2018-12-23T12:22:04.815Z,437.89
2018-12-23T12:23:04.812Z,431.87
2018-12-23T12:24:04.767Z,435.49
2018-12-23T12:25:04.747Z,429.90
2018-12-23T12:26:04.750Z,428.57
2018-12-23T12:27:04.767Z,428.60
2018-12-23T12:28:04.742Z,433.74